CheckWX is a tool to help pilots better visualize weather data.  It is not intended as a substitute for an official pre-flight weather briefing.

03:01:25 UTC

KGNR METAR
Greenville Airport
Maine, USA
Current

5 mins ago

KGNR 240256Z AUTO 31021G32KT M04/M11 A2967 RMK AO1 PK WND 32036/0158 SLP065 T10441111 52027
Observed
Mar-24 @ 02:56 UTC
Wind
  • 310° at 21 KTS
  • Gusting to 32 KTS
Visibility
Temperature
-4°C / 25°F
Dewpoint
-11°C / 12°F
Humidity
59%
Altimeter
29.67" Hg
Pressure
1006.5 hPa
Previous

1 hour ago

KGNR 240156Z AUTO 31021G35KT M04/M10 A2964 RMK AO1 PK WND 32035/0150 SLP054 T10441100
Observed
Mar-24 @ 01:56 UTC
Wind
  • 310° at 21 KTS
  • Gusting to 35 KTS
Visibility
Temperature
-4°C / 25°F
Dewpoint
-10°C / 14°F
Humidity
63%
Altimeter
29.64" Hg
Pressure
1005.4 hPa
Previous

2 hours ago

KGNR 240056Z AUTO 31019G31KT M03/M09 A2961 RMK AO1 PK WND 32033/0020 SLP047 T10331089
Observed
Mar-24 @ 00:56 UTC
Wind
  • 310° at 19 KTS
  • Gusting to 31 KTS
Visibility
Temperature
-3°C / 27°F
Dewpoint
-9°C / 16°F
Humidity
64%
Altimeter
29.61" Hg
Pressure
1004.7 hPa